Flight Track Log - Related Links

Times and Time Zones

All times are in EDT time to prevent confusion due to time zone crossing. See the UAL3740 flight status page for this flight to view local times or setup timezone preferences in your user account.

Time Position Orientation Groundspeed Altitude Reporting Facility
EDT Latitude Longitude Course Direction KTS MPH feet Rate Location/Type
Sat 10:17:20 AM 41.8358 -71.5067 330° Northwest 249 287 5,500  Level Boston Center
Sat 10:18:20 AM 41.8700 -71.6008 296° West 272 313 8,500 2,700 Climbing Boston Center
Sat 10:19:20 AM 41.9019 -71.6925 295° West 298 343 10,900 2,100 Climbing Boston Center
Sat 10:20:20 AM 41.9028 -71.8236 271° West 317 365 12,700 1,900 Climbing Boston Center
Sat 10:21:20 AM 41.8783 -71.9467 255° West 355 409 14,700 2,100 Climbing Boston Center
Sat 10:22:20 AM 41.8497 -72.0944 255° West 373 429 16,900 1,850 Climbing Boston Center
Sat 10:23:20 AM 41.8250 -72.2200 255° West 385 443 18,400 1,550 Climbing Boston Center
Sat 10:24:20 AM 41.7981 -72.3650 256° West 390 449 20,000 1,550 Climbing Boston Center
Sat 10:25:20 AM 41.7647 -72.5264 255° West 401 461 21,500 1,500 Climbing Boston Center
Sat 10:26:20 AM 41.7375 -72.6822 257° West 414 476 23,000 1,400 Climbing Boston Center
Sat 10:27:20 AM 41.6911 -72.8319 248° West 426 490 24,300 1,200 Climbing Boston Center
Sat 10:28:20 AM 41.6281 -72.9817 241° Southwest 443 510 25,400 1,300 Climbing Boston Center
Sat 10:29:20 AM 41.5647 -73.1253 240° Southwest 453 521 26,900 1,300 Climbing Boston Center
Sat 10:30:20 AM 41.5097 -73.2550 241° Southwest 458 527 28,000 1,000 Climbing Boston Center
Sat 10:31:20 AM 41.4481 -73.4039 241° Southwest 463 533 28,900 1,161 Climbing Boston Center
Sat 10:32:55 AM 41.3411 -73.6478 240° Southwest 473 544 31,000 1,216 Climbing New Center
Sat 10:33:53 AM 41.2792 -73.7914 240° Southwest 468 539 32,000 504 Climbing New Center
Sat 10:34:54 AM 41.2128 -73.9400 239° Southwest 462 532 32,000 -99 Level New Center
Sat 10:35:54 AM 41.1461 -74.0939 240° Southwest 470 541 31,800 -893 Descending New Center
Sat 10:36:55 AM 41.0775 -74.2311 236° Southwest 485 558 30,200 -1,686 Descending New Center
Sat 10:37:55 AM 41.0042 -74.3839 238° Southwest 495 570 28,400 -1,119 Descending New Center
Sat 10:38:53 AM 40.9331 -74.5311 237° Southwest 489 563 28,000 -203 Descending New Center
Sat 10:39:53 AM 40.8761 -74.6817 243° Southwest 479 551 28,000  Level New Center
Sat 10:40:54 AM 40.8292 -74.8381 248° West 467 537 28,000  Level New Center
Sat 10:41:54 AM 40.7797 -74.9942 247° West 462 532 28,000  Level New Center
Sat 10:42:54 AM 40.7117 -75.1458 239° Southwest 472 543 28,000 -99 Level New Center
Sat 10:43:55 AM 40.6356 -75.2914 235° Southwest 477 549 27,800 -1,190 Descending New Center
Sat 10:44:55 AM 40.5608 -75.4394 236° Southwest 487 560 25,600 -2,237 Descending New Center
Sat 10:45:53 AM 40.4883 -75.5875 237° Southwest 487 560 23,400 -2,218 Descending New Center
Sat 10:46:54 AM 40.4158 -75.7242 235° Southwest 487 560 21,200 -1,686 Descending New Center
Sat 10:47:54 AM 40.3433 -75.8633 236° Southwest 475 547 20,000 -605 Descending New Center
Sat 10:48:53 AM 40.2617 -76.0122 234° Southwest 475 547 20,000 -151 Level New Center
Sat 10:49:53 AM 40.1931 -76.1514 237° Southwest 470 541 19,700 -992 Descending New Center
Sat 10:50:54 AM 40.1311 -76.2714 236° Southwest 456 525 18,000 -1,584 Descending New Center
Sat 10:52:51 AM 40.0000 -76.5500 239° Southwest 434 499 15,000 -1,011 Descending Potomac TRACON
Sat 10:53:52 AM 39.9333 -76.6833 237° Southwest 425 489 15,000  Level Potomac TRACON
Sat 10:54:52 AM 39.8833 -76.8000 241° Southwest 419 482 15,000 -650 Level Potomac TRACON
Sat 10:55:52 AM 39.8167 -76.9333 237° Southwest 414 476 13,700 -1,550 Descending Potomac TRACON
Sat 10:56:52 AM 39.7667 -77.0667 244° Southwest 401 461 11,900 -1,800 Descending Potomac TRACON
Sat 10:57:52 AM 39.7000 -77.1833 233° Southwest 388 447 10,100 -942 Descending Potomac TRACON
Sat 10:58:53 AM 39.6500 -77.3000 241° Southwest 385 443 10,000 -99 Descending Potomac TRACON
Sat 10:59:53 AM 39.5667 -77.3667 212° Southwest 324 373 9,900 -900 Descending Potomac TRACON
Sat 11:00:53 AM 39.5000 -77.4333 218° Southwest 288 331 8,200 -1,750 Descending Potomac TRACON
Sat 11:01:53 AM 39.4333 -77.4500 191° South 274 315 6,400 -1,091 Descending Potomac TRACON
Sat 11:02:54 AM 39.3500 -77.4500 180° South 264 304 6,000 -446 Descending Potomac TRACON
Sat 11:03:54 AM 39.2833 -77.4500 180° South 259 298 5,500 -1,000 Descending Potomac TRACON
Sat 11:04:54 AM 39.2167 -77.4500 180° South 255 293 4,000 -850 Descending Potomac TRACON
Sat 11:05:54 AM 39.1500 -77.4667 191° South 232 267 3,800 -694 Descending Potomac TRACON
Sat 11:06:55 AM 39.0833 -77.4500 169° South 221 254 2,600 -1,140 Descending Potomac TRACON
Sat 11:07:55 AM 39.0333 -77.4667 195° South 186 214 1,500 -950 Descending Potomac TRACON
Sat 11:08:55 AM 38.9833 -77.4667 180° South 142 163 700 -800 Descending Potomac TRACON
Sat 11:10:00 AM 38.9474 -77.4599 180° South  Level Estimated
Sat 11:17:00 AM 38.9474 -77.4599 349° North  Level Estimated
Sat 11:18:00 AM 38.9474 -77.4599 349° North  Level Estimated
Sat 11:19:00 AM 38.9474 -77.4599 349° North  Level Estimated
Sat 11:20:00 AM 38.9474 -77.4599 349° North  Level Estimated

Login

Don't have an account? Register now (free) for customized features, flight alerts, and more!